Time;durP1;ratioP1;P1;durP2;ratioP2;P2;SDS_P1;SDS_P2;PMS_P1;PMS_P2;Temp;Humidity;BMP_temperature;BMP_pressure;BME280_temperature;BME280_humidity;BME280_pressure;Samples;Min_cycle;Max_cycle;Signal;HPM_P1;HPM_P2
2022/02/20 00:01:29;;;;;;;214.88;95.35;;;;;;;8.43;48.08;95084.50;4954715;29;20030;-78
2022/02/20 00:03:55;;;;;;;205.05;91.05;;;;;;;8.42;47.66;95090.69;4955678;29;20538;-78
2022/02/20 00:06:20;;;;;;;192.10;87.15;;;;;;;8.45;48.33;95093.88;4955871;29;20031;-78
2022/02/20 00:08:46;;;;;;;189.63;80.82;;;;;;;8.40;47.83;95092.72;4952863;28;20403;-78
2022/02/20 00:11:11;;;;;;;157.65;73.25;;;;;;;8.43;48.32;95096.66;4955319;29;20090;-78
2022/02/20 00:13:36;;;;;;;159.70;69.32;;;;;;;8.46;48.45;95096.28;4937082;29;20031;-78
2022/02/20 00:16:02;;;;;;;156.73;71.90;;;;;;;8.49;47.91;95084.69;4954525;28;20074;-78
2022/02/20 00:18:27;;;;;;;201.07;91.57;;;;;;;8.52;48.97;95084.25;4935905;29;20039;-78
2022/02/20 00:20:53;;;;;;;165.10;78.00;;;;;;;8.53;48.52;95075.47;4953680;29;20066;-78
2022/02/20 00:23:18;;;;;;;183.73;84.18;;;;;;;8.49;48.46;95072.53;4952951;29;20043;-78
2022/02/20 00:25:44;;;;;;;166.05;68.68;;;;;;;8.54;48.30;95064.88;4952606;28;20035;-78
2022/02/20 00:28:10;;;;;;;181.60;84.88;;;;;;;8.53;48.62;95065.09;4954318;29;20186;-78
2022/02/20 00:30:35;;;;;;;160.25;77.68;;;;;;;8.55;48.74;95063.09;4953288;29;20035;-79
2022/02/20 00:33:01;;;;;;;144.07;62.72;;;;;;;8.55;48.55;95063.88;4954492;29;20047;-79
2022/02/20 00:35:30;;;;;;;113.18;49.50;;;;;;;8.57;48.22;95061.06;4936683;29;20039;-78
2022/02/20 00:37:56;;;;;;;99.47;44.35;;;;;;;8.61;47.86;95057.03;4952966;29;20047;-79
2022/02/20 00:40:21;;;;;;;102.28;46.85;;;;;;;8.60;48.07;95065.84;4956075;28;20570;-78
2022/02/20 00:42:47;;;;;;;108.93;49.05;;;;;;;8.56;47.90;95065.47;4939214;29;20039;-78
2022/02/20 00:45:12;;;;;;;89.10;40.97;;;;;;;8.56;47.81;95064.69;4957277;29;20035;-79
2022/02/20 00:47:38;;;;;;;94.22;42.42;;;;;;;8.57;47.14;95072.25;4940552;29;20086;-79
2022/02/20 00:50:03;;;;;;;108.30;46.03;;;;;;;8.60;47.67;95076.19;4955721;28;20039;-78
2022/02/20 00:52:29;;;;;;;94.82;44.15;;;;;;;8.67;47.40;95062.19;4955471;29;20035;-79
2022/02/20 00:54:54;;;;;;;106.03;50.53;;;;;;;8.73;47.88;95060.53;4955882;29;20045;-79
2022/02/20 00:57:22;;;;;;;112.35;50.42;;;;;;;8.68;47.75;95060.38;4956346;29;20031;-79
2022/02/20 00:59:48;;;;;;;124.85;59.80;;;;;;;8.67;48.33;95062.19;4955569;29;20035;-78
2022/02/20 01:02:14;;;;;;;135.77;63.83;;;;;;;8.69;48.22;95059.38;4939917;29;20039;-79
2022/02/20 01:04:39;;;;;;;176.07;80.35;;;;;;;8.66;48.98;95059.81;4955603;29;20043;-78
2022/02/20 01:07:05;;;;;;;163.07;78.15;;;;;;;8.63;48.64;95060.25;4954899;29;20034;-78
2022/02/20 01:09:30;;;;;;;164.02;83.43;;;;;;;8.63;48.78;95065.44;4955080;29;20039;-78
2022/02/20 01:11:55;;;;;;;167.00;77.00;;;;;;;8.60;48.76;95073.59;4954426;29;20035;-78
2022/02/20 01:14:21;;;;;;;132.20;66.50;;;;;;;8.55;48.41;95069.06;4954915;28;20039;-78
2022/02/20 01:16:46;;;;;;;142.35;78.03;;;;;;;8.59;48.03;95075.41;4939043;29;20106;-79
2022/02/20 01:19:12;;;;;;;175.10;88.18;;;;;;;8.56;48.62;95081.03;4955633;28;20119;-78
2022/02/20 01:21:38;;;;;;;169.07;80.50;;;;;;;8.51;49.04;95070.50;4938659;29;20047;-78
2022/02/20 01:24:04;;;;;;;113.78;58.45;;;;;;;8.50;48.05;95078.50;4938371;29;20040;-78
2022/02/20 01:26:29;;;;;;;134.90;61.08;;;;;;;8.56;47.73;95075.03;4953887;29;20035;-78
2022/02/20 01:28:54;;;;;;;81.00;40.42;;;;;;;8.54;46.55;95075.25;4954447;29;20035;-78
2022/02/20 01:31:20;;;;;;;81.03;44.15;;;;;;;8.50;47.42;95071.50;4937218;29;20419;-78
2022/02/20 01:33:45;;;;;;;94.32;44.53;;;;;;;8.51;46.67;95077.50;4953237;28;20046;-78
2022/02/20 01:36:11;;;;;;;87.97;42.13;;;;;;;8.43;47.56;95081.13;4937906;29;20121;-78
2022/02/20 01:38:36;;;;;;;95.00;48.42;;;;;;;8.51;47.11;95087.84;4955479;28;20031;-78
2022/02/20 01:41:02;;;;;;;100.70;49.67;;;;;;;8.58;47.40;95078.22;4954565;29;20067;-78
2022/02/20 01:43:28;;;;;;;102.57;49.13;;;;;;;8.59;47.02;95069.44;4954266;28;20094;-78
2022/02/20 01:45:54;;;;;;;97.80;46.95;;;;;;;8.65;47.05;95060.81;4938238;29;20039;-78
2022/02/20 01:48:20;;;;;;;57.80;29.48;;;;;;;8.66;46.24;95062.41;4955052;29;20089;-78
2022/02/20 01:50:45;;;;;;;65.10;30.92;;;;;;;8.62;46.08;95056.84;4938038;29;20140;-79
2022/02/20 01:53:11;;;;;;;80.40;39.13;;;;;;;8.65;46.80;95055.63;4954218;29;20484;-78
2022/02/20 01:55:36;;;;;;;111.15;58.47;;;;;;;8.63;48.33;95055.06;4938305;29;20039;-78
2022/02/20 01:58:02;;;;;;;126.13;56.67;;;;;;;8.59;48.63;95059.84;4957835;23;20039;-78
2022/02/20 02:00:29;;;;;;;84.78;36.53;;;;;;;8.66;47.75;95057.22;4968213;28;20505;-79
2022/02/20 02:02:54;;;;;;;84.70;41.17;;;;;;;8.68;48.36;95044.84;4965136;28;20034;-79
2022/02/20 02:05:20;;;;;;;82.22;39.42;;;;;;;8.74;47.60;95046.56;4967024;28;20035;-79
2022/02/20 02:07:45;;;;;;;77.72;36.45;;;;;;;8.78;47.66;95050.31;4965156;28;21021;-78
2022/02/20 02:10:10;;;;;;;110.13;54.63;;;;;;;8.77;48.22;95047.94;4956447;28;20051;-79
2022/02/20 02:12:36;;;;;;;106.47;48.40;;;;;;;8.78;48.40;95034.75;4965230;28;20494;-78
2022/02/20 02:15:04;;;;;;;103.38;45.38;;;;;;;8.75;48.24;95024.81;4963871;28;20046;-78
2022/02/20 02:17:30;;;;;;;116.90;57.42;;;;;;;8.73;48.91;95034.59;4971244;28;20082;-78
2022/02/20 02:19:55;;;;;;;124.00;56.63;;;;;;;8.75;48.57;95029.19;4977011;28;20050;-77
2022/02/20 02:22:22;;;;;;;102.72;45.95;;;;;;;8.78;48.48;95021.00;4976669;28;20098;-78
2022/02/20 02:24:47;;;;;;;109.63;50.67;;;;;;;8.77;48.17;95020.19;4957207;28;20047;-78
2022/02/20 02:27:13;;;;;;;113.82;53.95;;;;;;;8.77;48.88;95014.22;4951046;28;20039;-78
2022/02/20 02:29:39;;;;;;;100.57;48.95;;;;;;;8.76;48.55;95023.00;4970220;28;20451;-78
2022/02/20 02:32:05;;;;;;;116.35;51.65;;;;;;;8.72;48.83;95009.69;4946044;28;20130;-78
2022/02/20 02:34:30;;;;;;;82.60;39.38;;;;;;;8.76;48.44;94995.28;4963370;28;20118;-78
2022/02/20 02:36:56;;;;;;;73.82;33.38;;;;;;;8.64;48.24;94995.22;4938053;28;20050;-78
2022/02/20 02:39:21;;;;;;;80.95;35.03;;;;;;;8.70;48.35;95014.31;4963402;28;20729;-79
2022/02/20 02:41:47;;;;;;;95.75;40.50;;;;;;;8.72;48.21;95015.66;4953375;28;20047;-78
2022/02/20 02:44:12;;;;;;;99.25;46.45;;;;;;;8.67;48.77;95012.16;4963208;28;20039;-78
2022/02/20 02:46:38;;;;;;;92.07;44.70;;;;;;;8.71;48.64;95006.31;4954921;28;20046;-78
2022/02/20 02:49:04;;;;;;;75.45;39.97;;;;;;;8.68;48.64;94995.56;4963993;28;20051;-78
2022/02/20 02:51:30;;;;;;;79.15;36.83;;;;;;;8.66;47.45;95008.75;4955076;28;20043;-78
2022/02/20 02:53:56;;;;;;;86.53;41.28;;;;;;;8.63;48.34;95009.19;4964622;28;20074;-78
2022/02/20 02:56:21;;;;;;;93.85;40.97;;;;;;;8.68;47.68;95011.13;4946782;28;20097;-78
2022/02/20 02:58:47;;;;;;;95.80;47.65;;;;;;;8.68;48.37;95000.75;4947983;28;20506;-79
2022/02/20 03:01:16;;;;;;;90.65;41.60;;;;;;;8.62;48.87;94988.66;4963081;28;20038;-78
2022/02/20 03:03:41;;;;;;;103.55;49.10;;;;;;;8.64;48.71;94994.44;4963333;28;20073;-78
2022/02/20 03:06:10;;;;;;;104.45;48.75;;;;;;;8.64;48.93;94990.03;4971822;28;20030;-78
2022/02/20 03:08:35;;;;;;;89.07;41.38;;;;;;;8.62;48.30;94991.22;4963368;28;20034;-77
2022/02/20 03:11:03;;;;;;;85.85;43.35;;;;;;;8.63;48.37;94991.03;4961619;28;20042;-78
2022/02/20 03:13:29;;;;;;;104.63;46.50;;;;;;;8.61;47.89;94994.84;4962700;28;20045;-78
2022/02/20 03:15:54;;;;;;;116.97;53.17;;;;;;;8.53;49.78;94995.13;4962818;28;20046;-78
2022/02/20 03:18:20;;;;;;;110.45;51.38;;;;;;;8.45;49.38;94985.03;4963069;28;20038;-78
2022/02/20 03:20:45;;;;;;;102.68;52.25;;;;;;;8.42;50.01;94992.22;4960922;28;20406;-78
2022/02/20 03:23:11;;;;;;;132.98;74.40;;;;;;;8.47;49.32;95001.19;4962064;28;20043;-78
2022/02/20 03:25:36;;;;;;;98.13;53.53;;;;;;;8.35;48.96;95004.47;4953930;28;20051;-78
2022/02/20 03:28:02;;;;;;;86.63;44.63;;;;;;;8.34;48.37;95012.44;4971050;28;20055;-77
2022/02/20 03:30:27;;;;;;;102.05;52.72;;;;;;;8.28;49.05;94995.91;4979505;28;20047;-78
2022/02/20 03:32:53;;;;;;;70.15;35.03;;;;;;;8.31;47.89;94986.94;4980561;28;20034;-77
2022/02/20 03:35:19;;;;;;;84.72;37.47;;;;;;;8.32;48.04;94978.94;4964908;28;20113;-78
2022/02/20 03:37:44;;;;;;;67.47;30.13;;;;;;;8.31;46.90;94976.56;4954182;28;20050;-78
2022/02/20 03:40:10;;;;;;;69.90;28.45;;;;;;;8.34;46.58;94974.38;4962946;28;20047;-78
2022/02/20 03:42:36;;;;;;;63.72;29.63;;;;;;;8.33;46.80;94975.34;4953143;28;20054;-78
2022/02/20 03:45:01;;;;;;;59.50;29.92;;;;;;;8.36;47.15;95018.22;4954609;28;20034;-78
2022/02/20 03:47:27;;;;;;;77.47;39.08;;;;;;;8.25;48.69;95022.25;4954386;28;20423;-79
2022/02/20 03:49:52;;;;;;;76.35;36.67;;;;;;;8.21;48.53;95023.69;4962414;28;20032;-79
2022/02/20 03:52:18;;;;;;;74.60;35.13;;;;;;;8.23;48.11;95029.44;4955101;28;20031;-78
2022/02/20 03:54:45;;;;;;;70.38;33.25;;;;;;;8.31;47.04;95036.97;4964480;28;20067;-78
2022/02/20 03:57:10;;;;;;;63.20;33.42;;;;;;;8.31;46.88;95020.63;4963832;28;20035;-78
2022/02/20 03:59:35;;;;;;;51.13;28.33;;;;;;;8.35;46.79;95030.38;4961629;28;20232;-78
2022/02/20 04:02:01;;;;;;;65.45;26.20;;;;;;;8.33;46.82;95049.69;4961469;28;20031;-78
2022/02/20 04:04:26;;;;;;;51.08;25.88;;;;;;;8.36;47.30;95070.81;4952404;28;20069;-78
2022/02/20 04:06:52;;;;;;;71.07;35.17;;;;;;;8.37;47.35;95076.78;4962066;28;20144;-78
2022/02/20 04:09:17;;;;;;;88.07;38.05;;;;;;;8.36;47.43;95070.81;4946065;28;20043;-78
2022/02/20 04:11:43;;;;;;;81.38;40.65;;;;;;;8.38;47.34;95066.22;4961571;28;20035;-78
2022/02/20 04:14:08;;;;;;;95.50;43.67;;;;;;;8.39;47.59;95069.59;4962308;28;20038;-78
2022/02/20 04:16:34;;;;;;;93.80;47.10;;;;;;;8.36;47.67;95070.81;4948586;28;20831;-78
2022/02/20 04:18:59;;;;;;;82.63;42.17;;;;;;;8.35;47.49;95077.00;4964238;28;20039;-78
2022/02/20 04:21:25;;;;;;;74.55;36.67;;;;;;;8.35;47.76;95079.59;4963257;28;20045;-77
2022/02/20 04:23:50;;;;;;;75.13;34.50;;;;;;;8.35;47.93;95092.56;4966352;28;20062;-78
2022/02/20 04:26:16;;;;;;;71.40;33.70;;;;;;;8.32;47.70;95094.75;4955954;28;20035;-78
2022/02/20 04:28:41;;;;;;;59.95;31.95;;;;;;;8.38;47.51;95099.91;4965289;28;20090;-78
2022/02/20 04:31:07;;;;;;;61.05;31.58;;;;;;;8.41;47.71;95099.47;4949964;28;20491;-78
2022/02/20 04:33:33;;;;;;;60.13;31.92;;;;;;;8.37;47.15;95095.72;4957893;28;20035;-79
2022/02/20 04:35:58;;;;;;;68.10;35.72;;;;;;;8.46;47.49;95108.41;4956991;28;20038;-78
2022/02/20 04:38:24;;;;;;;67.57;35.90;;;;;;;8.50;46.94;95112.19;4967233;28;20459;-78
2022/02/20 04:40:49;;;;;;;75.55;35.17;;;;;;;8.49;47.19;95108.00;4966329;28;20047;-78
2022/02/20 04:43:15;;;;;;;66.38;34.08;;;;;;;8.47;47.55;95122.97;4964782;28;20042;-78
2022/02/20 04:45:40;;;;;;;57.72;29.58;;;;;;;8.46;47.72;95126.53;4950123;28;20057;-78
2022/02/20 04:48:05;;;;;;;69.30;30.90;;;;;;;8.49;47.31;95136.53;4965079;28;20035;-78
2022/02/20 04:50:31;;;;;;;69.50;31.52;;;;;;;8.52;47.42;95139.47;4964494;28;20038;-78
2022/02/20 04:52:56;;;;;;;97.00;34.65;;;;;;;8.43;48.15;95138.94;4965713;28;20055;-78
2022/02/20 04:55:22;;;;;;;77.57;34.17;;;;;;;8.45;49.22;95130.16;4964781;28;20031;-78
2022/02/20 04:57:48;;;;;;;65.80;30.55;;;;;;;8.41;48.84;95125.38;4964091;28;20050;-78
2022/02/20 05:00:14;;;;;;;60.28;29.20;;;;;;;8.36;47.52;95133.00;4965007;28;20039;-78
2022/02/20 05:02:39;;;;;;;55.50;31.08;;;;;;;8.41;46.98;95127.19;4965580;28;20035;-78
2022/02/20 05:05:07;;;;;;;62.67;26.70;;;;;;;8.47;46.73;95120.38;4966708;28;20027;-78
2022/02/20 05:07:33;;;;;;;60.60;26.50;;;;;;;8.48;46.68;95134.94;4965652;28;20039;-79
2022/02/20 05:09:58;;;;;;;48.75;27.10;;;;;;;8.43;46.73;95120.78;4949459;28;20069;-79
2022/02/20 05:12:23;;;;;;;53.92;25.42;;;;;;;8.49;46.74;95134.72;4965688;28;20042;-79
2022/02/20 05:14:49;;;;;;;52.78;25.30;;;;;;;8.50;47.09;95127.75;4958765;28;20039;-78
2022/02/20 05:17:16;;;;;;;53.85;26.30;;;;;;;8.53;46.67;95128.09;4966002;28;20039;-79
2022/02/20 05:19:41;;;;;;;51.53;27.15;;;;;;;8.58;46.79;95127.47;4966271;28;20208;-79
2022/02/20 05:22:06;;;;;;;50.47;26.85;;;;;;;8.56;46.77;95116.50;4966472;28;20495;-79
2022/02/20 05:24:32;;;;;;;48.92;25.15;;;;;;;8.52;46.59;95115.34;4949669;28;20396;-78
2022/02/20 05:26:57;;;;;;;59.08;27.42;;;;;;;8.56;47.52;95126.88;4946968;28;20047;-79
2022/02/20 05:29:23;;;;;;;58.13;26.27;;;;;;;8.55;47.15;95125.28;4948411;28;20039;-78
2022/02/20 05:31:48;;;;;;;52.10;26.98;;;;;;;8.57;47.31;95129.25;4966127;28;20035;-78
2022/02/20 05:34:14;;;;;;;61.83;32.63;;;;;;;8.60;47.37;95143.59;4964015;28;20035;-78
2022/02/20 05:36:39;;;;;;;64.57;36.00;;;;;;;8.61;47.71;95147.78;4956083;28;20031;-78
2022/02/20 05:39:05;;;;;;;75.85;31.73;;;;;;;8.56;47.78;95132.06;4966394;28;20031;-78
2022/02/20 05:41:30;;;;;;;65.35;34.47;;;;;;;8.56;47.54;95147.63;4956593;28;20039;-78
2022/02/20 05:43:56;;;;;;;61.88;33.00;;;;;;;8.59;47.71;95155.75;4939859;28;20042;-78
2022/02/20 05:46:21;;;;;;;56.50;27.67;;;;;;;8.63;47.56;95169.13;4965201;28;20034;-78
2022/02/20 05:48:47;;;;;;;51.28;24.10;;;;;;;8.65;47.42;95173.09;4964594;28;20038;-78
2022/02/20 05:51:13;;;;;;;44.75;21.40;;;;;;;8.68;47.48;95174.47;4963180;28;20487;-78
2022/02/20 05:53:38;;;;;;;37.03;20.67;;;;;;;8.74;46.70;95165.81;4963015;28;20059;-78
2022/02/20 05:56:04;;;;;;;36.55;20.23;;;;;;;8.78;46.88;95153.22;4954846;28;20047;-78
2022/02/20 05:58:29;;;;;;;43.95;21.65;;;;;;;8.75;46.49;95145.88;4964215;28;20032;-78
2022/02/20 06:00:55;;;;;;;44.45;21.15;;;;;;;8.81;46.23;95145.84;4939134;28;20103;-78
2022/02/20 06:03:20;;;;;;;48.17;24.60;;;;;;;8.91;46.19;95135.75;4963427;28;20038;-78
2022/02/20 06:05:46;;;;;;;61.67;29.70;;;;;;;8.91;46.29;95140.94;4963206;28;20043;-78
2022/02/20 06:08:11;;;;;;;58.20;27.98;;;;;;;8.98;46.40;95131.31;4969369;28;20269;-78
2022/02/20 06:10:37;;;;;;;52.83;23.92;;;;;;;9.00;46.31;95129.31;4953553;28;20031;-78
2022/02/20 06:13:03;;;;;;;45.42;20.80;;;;;;;9.07;45.94;95136.22;4962595;28;20035;-78
2022/02/20 06:15:29;;;;;;;43.63;20.02;;;;;;;9.17;46.41;95139.91;4969114;28;20038;-79
2022/02/20 06:17:54;;;;;;;38.30;19.10;;;;;;;9.28;46.10;95130.66;4968019;28;20043;-78
2022/02/20 06:20:20;;;;;;;41.58;19.33;;;;;;;9.34;45.48;95129.78;4985870;28;20034;-78
2022/02/20 06:22:45;;;;;;;50.78;23.23;;;;;;;9.42;45.76;95129.47;4973150;28;20041;-78
2022/02/20 06:25:11;;;;;;;55.03;24.85;;;;;;;9.47;45.47;95123.66;4948235;28;20039;-78
2022/02/20 06:27:36;;;;;;;56.10;25.25;;;;;;;9.53;45.26;95130.56;4945695;28;20066;-77
2022/02/20 06:30:02;;;;;;;58.97;30.60;;;;;;;9.51;45.72;95130.00;4961282;28;20498;-77
2022/02/20 06:32:27;;;;;;;71.53;32.25;;;;;;;9.57;45.96;95131.72;4961656;28;20128;-77
2022/02/20 06:34:53;;;;;;;87.00;40.42;;;;;;;9.65;45.40;95130.63;4961172;28;20661;-77
2022/02/20 06:37:18;;;;;;;111.28;57.30;;;;;;;9.68;46.13;95136.19;4959157;28;20070;-77
2022/02/20 06:39:45;;;;;;;87.63;47.83;;;;;;;9.68;45.44;95135.38;4967782;28;20035;-77
2022/02/20 06:42:14;;;;;;;97.72;53.38;;;;;;;9.70;45.66;95138.56;4928886;28;20038;-77
2022/02/20 06:44:39;;;;;;;104.00;48.50;;;;;;;9.70;45.91;95143.75;4961578;28;20595;-77
2022/02/20 06:47:05;;;;;;;133.75;57.33;;;;;;;9.66;47.54;95145.19;4951345;28;20125;-77
2022/02/20 06:49:30;;;;;;;150.15;76.43;;;;;;;9.69;46.02;95142.16;4961479;28;20045;-77
2022/02/20 06:51:56;;;;;;;155.07;76.45;;;;;;;9.74;45.83;95158.66;4968849;28;20035;-77
2022/02/20 06:54:21;;;;;;;183.75;92.45;;;;;;;9.84;46.19;95165.97;4968020;28;20102;-77
2022/02/20 06:56:47;;;;;;;154.20;79.70;;;;;;;9.87;46.25;95158.53;4961063;28;20131;-77
2022/02/20 06:59:13;;;;;;;111.95;52.97;;;;;;;9.92;46.74;95152.66;4945008;28;20035;-77
2022/02/20 07:01:38;;;;;;;114.45;62.92;;;;;;;10.00;46.06;95144.56;4945780;28;20042;-78
2022/02/20 07:04:05;;;;;;;97.47;49.00;;;;;;;10.08;45.68;95126.06;4962225;28;20062;-77
2022/02/20 07:06:31;;;;;;;90.43;48.20;;;;;;;10.21;45.24;95131.13;4960862;28;20042;-77
2022/02/20 07:08:57;;;;;;;80.13;38.55;;;;;;;10.32;45.74;95136.59;4960603;28;20038;-77
2022/02/20 07:11:22;;;;;;;83.70;43.33;;;;;;;10.44;45.42;95134.81;4960446;28;20035;-76
2022/02/20 07:13:48;;;;;;;104.45;42.60;;;;;;;10.51;45.61;95135.50;4962004;28;20055;-78
2022/02/20 07:16:13;;;;;;;75.65;38.03;;;;;;;10.56;46.29;95143.41;4954099;28;20447;-78
2022/02/20 07:18:39;;;;;;;99.25;48.42;;;;;;;10.64;46.83;95130.09;4961488;28;20038;-78
2022/02/20 07:21:04;;;;;;;92.57;44.40;;;;;;;10.75;45.88;95124.13;4960399;28;20043;-78
2022/02/20 07:23:29;;;;;;;85.35;40.35;;;;;;;10.86;46.02;95106.16;4962400;28;20035;-78
2022/02/20 07:25:55;;;;;;;65.28;30.85;;;;;;;10.96;45.77;95103.78;4962621;28;20050;-79
2022/02/20 07:28:22;;;;;;;42.72;22.75;;;;;;;11.06;45.89;95098.78;4962306;28;20708;-78
2022/02/20 07:30:47;;;;;;;32.00;17.73;;;;;;;11.18;45.36;95096.19;4953055;28;20426;-79
2022/02/20 07:33:14;;;;;;;27.35;14.32;;;;;;;11.29;44.93;95101.38;4939912;28;20027;-79
2022/02/20 07:35:40;;;;;;;24.77;12.75;;;;;;;11.35;44.59;95100.44;4955378;28;20050;-79
2022/02/20 07:38:05;;;;;;;20.55;10.75;;;;;;;11.46;44.81;95106.66;4964590;28;20059;-79
2022/02/20 07:40:31;;;;;;;17.27;10.65;;;;;;;11.59;44.18;95105.63;4966756;23;20039;-78
2022/02/20 07:42:57;;;;;;;17.30;10.88;;;;;;;11.67;44.07;95105.25;4962017;28;20270;-78
2022/02/20 07:45:23;;;;;;;27.63;11.70;;;;;;;11.71;44.21;95099.38;4969211;28;20031;-79
2022/02/20 07:47:52;;;;;;;22.90;10.93;;;;;;;11.80;44.16;95096.41;4971666;28;20034;-79
2022/02/20 07:50:19;;;;;;;19.60;10.05;;;;;;;11.87;43.76;95092.63;4965380;28;20050;-81
2022/02/20 07:52:45;;;;;;;21.23;11.43;;;;;;;11.89;43.59;95082.81;4977408;28;20543;-81
2022/02/20 07:55:10;;;;;;;25.17;12.48;;;;;;;11.91;43.73;95072.16;4976887;28;20093;-79
2022/02/20 07:57:36;;;;;;;41.83;15.05;;;;;;;11.98;43.83;95068.34;4943321;28;20087;-80
2022/02/20 08:00:03;;;;;;;32.90;15.60;;;;;;;12.10;43.17;95064.91;4977559;28;20031;-80
2022/02/20 08:02:28;;;;;;;31.80;14.88;;;;;;;12.23;43.08;95065.41;4976853;28;20098;-80
2022/02/20 08:04:54;;;;;;;27.98;14.88;;;;;;;12.33;42.80;95059.56;4976082;28;20039;-79
2022/02/20 08:07:19;;;;;;;24.45;13.98;;;;;;;12.45;42.39;95065.50;4958040;28;20038;-79
2022/02/20 08:09:45;;;;;;;30.75;15.15;;;;;;;12.51;41.97;95067.16;4958489;28;20525;-79
2022/02/20 08:12:10;;;;;;;34.35;14.52;;;;;;;12.57;41.91;95063.59;4975064;28;20035;-78
2022/02/20 08:14:36;;;;;;;36.10;15.80;;;;;;;12.58;41.78;95073.00;4934230;28;20056;-79
2022/02/20 08:17:01;;;;;;;41.33;16.30;;;;;;;12.47;42.48;95080.91;4974544;28;20039;-79
2022/02/20 08:19:27;;;;;;;33.00;14.63;;;;;;;12.58;42.03;95062.59;4958630;28;20063;-78
2022/02/20 08:21:52;;;;;;;36.97;18.30;;;;;;;12.76;41.74;95074.59;4976347;28;20605;-79
2022/02/20 08:24:18;;;;;;;45.88;23.55;;;;;;;12.93;41.00;95075.34;4974606;28;20049;-79
2022/02/20 08:26:45;;;;;;;58.30;27.65;;;;;;;13.14;40.04;95065.97;4959102;28;20517;-79
2022/02/20 08:29:11;;;;;;;70.13;27.15;;;;;;;13.09;39.97;95067.75;4958817;28;20048;-79
2022/02/20 08:31:36;;;;;;;57.50;27.40;;;;;;;13.08;40.29;95061.72;4974743;28;20031;-79
2022/02/20 08:34:02;;;;;;;57.03;26.20;;;;;;;13.20;39.89;95065.06;4958482;28;20458;-78
2022/02/20 08:36:28;;;;;;;58.22;27.90;;;;;;;13.07;39.83;95070.59;4974606;28;20053;-79
2022/02/20 08:38:54;;;;;;;45.50;23.77;;;;;;;12.93;40.15;95070.13;4975760;28;20398;-78
2022/02/20 08:41:20;;;;;;;59.45;29.83;;;;;;;12.92;40.03;95063.34;4974457;28;20510;-79
2022/02/20 08:43:45;;;;;;;76.75;32.83;;;;;;;12.77;40.35;95060.50;4958905;28;20031;-79
2022/02/20 08:46:11;;;;;;;80.82;31.27;;;;;;;12.71;40.30;95060.69;4974445;28;20562;-78
2022/02/20 08:48:36;;;;;;;63.92;30.48;;;;;;;12.35;41.12;95067.94;4971876;28;20094;-77
2022/02/20 08:51:03;;;;;;;57.45;28.27;;;;;;;12.29;41.39;95063.66;4975642;28;20581;-79
2022/02/20 08:53:29;;;;;;;55.40;29.33;;;;;;;12.38;41.40;95062.25;4941995;28;20510;-78
2022/02/20 08:55:54;;;;;;;69.18;28.15;;;;;;;12.28;41.72;95067.31;4975832;28;20046;-78
2022/02/20 08:58:20;;;;;;;83.15;34.00;;;;;;;12.23;41.70;95070.63;4975706;28;20046;-78
2022/02/20 09:00:45;;;;;;;67.10;34.80;;;;;;;12.29;41.75;95080.09;4973021;28;20039;-78
2022/02/20 09:03:11;;;;;;;56.65;29.70;;;;;;;12.15;41.55;95078.03;4973759;28;20576;-78
2022/02/20 09:05:36;;;;;;;60.35;30.17;;;;;;;12.14;41.93;95077.22;4957465;28;20026;-78
2022/02/20 09:08:02;;;;;;;64.97;30.40;;;;;;;12.01;42.30;95078.31;4974784;28;20399;-78
2022/02/20 09:10:27;;;;;;;57.83;27.35;;;;;;;11.65;43.34;95079.44;4973080;28;20042;-78
2022/02/20 09:12:52;;;;;;;60.28;25.40;;;;;;;11.43;44.20;95081.09;4957701;28;20035;-78
2022/02/20 09:15:18;;;;;;;55.50;25.15;;;;;;;11.27;44.71;95072.19;4973590;28;20054;-78
2022/02/20 09:17:43;;;;;;;41.78;22.67;;;;;;;11.36;45.02;95072.59;4957158;28;20042;-78
2022/02/20 09:20:10;;;;;;;40.22;20.77;;;;;;;11.47;44.79;95071.00;4957120;28;20035;-77
2022/02/20 09:22:38;;;;;;;37.67;20.50;;;;;;;11.68;44.52;95073.75;4955633;28;20121;-78
2022/02/20 09:25:03;;;;;;;47.45;22.08;;;;;;;11.88;44.17;95072.63;4973407;28;20035;-78
2022/02/20 09:27:29;;;;;;;40.92;21.27;;;;;;;12.12;43.85;95073.28;4973662;28;20035;-78
2022/02/20 09:29:54;;;;;;;44.05;20.35;;;;;;;12.32;43.19;95068.41;4974993;28;20041;-78
2022/02/20 09:32:22;;;;;;;41.50;19.75;;;;;;;12.55;42.75;95057.06;4973474;28;20046;-78
2022/02/20 09:34:48;;;;;;;37.33;19.02;;;;;;;12.76;42.39;95058.94;4974466;28;20038;-78
2022/02/20 09:37:14;;;;;;;34.50;19.63;;;;;;;12.96;42.30;95052.41;4958465;28;20045;-78
2022/02/20 09:39:39;;;;;;;36.83;18.92;;;;;;;13.19;41.84;95047.81;4974353;28;20561;-78
2022/02/20 09:42:05;;;;;;;31.40;18.38;;;;;;;13.38;41.70;95050.13;4974549;28;20038;-78
2022/02/20 09:44:30;;;;;;;34.47;18.50;;;;;;;13.65;41.18;95037.88;4974360;28;20039;-78
2022/02/20 09:46:56;;;;;;;35.03;17.75;;;;;;;13.81;40.42;95047.47;4975096;28;20499;-79
2022/02/20 09:49:28;;;;;;;64.25;37.72;;;;;;;14.05;40.18;95040.13;4973977;28;20094;-79
2022/02/20 09:51:57;;;;;;;33.88;17.65;;;;;;;14.27;39.78;95037.44;4941318;28;20502;-78
2022/02/20 09:54:22;;;;;;;35.13;18.08;;;;;;;14.45;38.89;95038.13;4972823;28;20034;-78
2022/02/20 09:56:48;;;;;;;43.67;17.77;;;;;;;14.53;38.29;95038.47;4970830;28;20371;-78
2022/02/20 09:59:17;;;;;;;42.85;17.83;;;;;;;14.67;38.65;95033.59;4970411;28;20088;-77
2022/02/20 10:02:05;;;;;;;41.50;16.98;;;;;;;14.88;38.14;95037.13;4954950;28;20030;-77
2022/02/20 10:04:40;;;;;;;32.80;13.27;;;;;;;14.90;37.71;95030.59;4971297;28;20423;-77
2022/02/20 10:07:06;;;;;;;31.10;13.05;;;;;;;14.97;37.52;95025.94;4970864;28;20065;-77
2022/02/20 10:09:38;;;;;;;32.65;13.05;;;;;;;15.08;37.50;95020.75;4970835;28;20059;-77
2022/02/20 10:12:27;;;;;;;24.10;14.15;;;;;;;15.17;37.51;95024.47;4970810;28;20051;-77
2022/02/20 10:15:04;;;;;;;20.83;13.15;;;;;;;15.06;37.13;95014.97;5019898;23;20042;-78
2022/02/20 10:17:29;;;;;;;33.00;14.13;;;;;;;15.05;37.18;95010.78;4942379;29;20125;-78
2022/02/20 10:20:04;;;;;;;32.42;15.57;;;;;;;15.09;37.44;95007.41;4954998;28;20045;-78
2022/02/20 10:22:35;;;;;;;27.13;15.07;;;;;;;15.22;37.30;95003.53;4933309;28;20030;-79
2022/02/20 10:25:11;;;;;;;33.33;15.65;;;;;;;15.32;37.17;94996.50;4977245;28;20054;-78
2022/02/20 10:27:47;;;;;;;38.17;17.77;;;;;;;15.32;37.02;94983.41;4971327;28;20035;-79
2022/02/20 10:30:25;;;;;;;31.83;16.63;;;;;;;15.37;36.85;94972.16;4962126;28;20055;-78
2022/02/20 10:33:22;;;;;;;40.15;21.23;;;;;;;15.46;37.95;94973.25;4938892;28;20065;-79
2022/02/20 10:35:48;;;;;;;45.72;22.27;;;;;;;15.53;37.41;94965.13;4947129;28;20034;-78
2022/02/20 10:38:18;;;;;;;57.25;21.88;;;;;;;15.55;37.26;94965.66;4947766;28;20094;-79
2022/02/20 10:40:48;;;;;;;36.65;19.10;;;;;;;15.56;37.20;94965.38;4947151;28;20033;-78
2022/02/20 10:43:31;;;;;;;36.90;18.50;;;;;;;15.50;37.30;94960.41;4931387;28;20035;-78
2022/02/20 10:46:07;;;;;;;36.30;19.40;;;;;;;15.40;37.69;94960.38;4961260;28;20050;-78
2022/02/20 10:48:41;;;;;;;42.05;19.65;;;;;;;15.40;37.45;94955.91;4929846;28;20066;-78
2022/02/20 10:51:07;;;;;;;39.28;19.45;;;;;;;15.43;37.23;94947.53;4947118;28;20039;-78
2022/02/20 10:53:32;;;;;;;33.97;18.45;;;;;;;15.41;37.60;94941.75;4962684;28;20031;-78
2022/02/20 10:56:01;;;;;;;40.97;18.80;;;;;;;15.39;37.99;94936.00;4963673;28;20117;-78
2022/02/20 10:58:27;;;;;;;39.85;20.23;;;;;;;15.45;37.96;94936.78;4947105;28;20470;-79
2022/02/20 11:00:54;;;;;;;32.33;19.00;;;;;;;15.60;37.20;94935.00;4962155;28;20047;-78
2022/02/20 11:03:22;;;;;;;42.20;19.00;;;;;;;15.73;36.50;94938.97;4960676;28;20062;-78
2022/02/20 11:05:48;;;;;;;35.40;17.27;;;;;;;15.93;36.76;94932.94;4945864;28;20043;-78
2022/02/20 11:08:17;;;;;;;27.95;15.20;;;;;;;16.08;35.58;94922.47;4963719;28;20030;-78
2022/02/20 11:10:42;;;;;;;31.83;13.57;;;;;;;15.80;36.17;94921.16;4946860;28;20045;-78
2022/02/20 11:13:09;;;;;;;31.23;13.45;;;;;;;15.87;35.85;94921.69;4963114;28;20031;-78
2022/02/20 11:15:35;;;;;;;27.83;12.48;;;;;;;15.67;36.79;94918.25;4930283;28;20129;-78